Observation data for Muleshoe on 09/30/2020      Previous  Date  Next       Current Mesonet Observations  Soil Data  Daily Summary Page  Observations in Plain Language
KMUS 300500Z 29005KT 09/M04 A3018 RMK A01 T00901039  RH  040%=      5-min Rain = 0
KMUS 300505Z 30007KT 09/M04 A3018 RMK A01 T00891035  RH  042%=      5-min Rain = 0
KMUS 300510Z 29007KT 09/M03 A3018 RMK A01 T00871029  RH  044%=      5-min Rain = 0
KMUS 300515Z 30007KT 09/M03 A3018 RMK A01 T00851027  RH  045%=      5-min Rain = 0
KMUS 300520Z 30007KT 08/M03 A3018 RMK A01 T00841028  RH  046%=      5-min Rain = 0
KMUS 300525Z 29007KT 08/M03 A3018 RMK A01 T00831030  RH  045%=      5-min Rain = 0
KMUS 300530Z 29006KT 08/M03 A3018 RMK A01 T00831032  RH  045%=      5-min Rain = 0
KMUS 300535Z 28006KT 08/M04 A3018 RMK A01 T00821035  RH  044%=      5-min Rain = 0
KMUS 300540Z 27007KT 08/M04 A3017 RMK A01 T00841035  RH  043%=      5-min Rain = 0
KMUS 300545Z 27007KT 09/M04 A3017 RMK A01 T00871036  RH  042%=      5-min Rain = 0
KMUS 300550Z 27007KT 09/M04 A3017 RMK A01 T00881037  RH  041%=      5-min Rain = 0
KMUS 300555Z 27006KT 09/M04 A3017 RMK A01 T00881038  RH  041%=      5-min Rain = 0
KMUS 300600Z 27007KT 09/M04 A3017 RMK A01 T00881038  RH  041%=      5-min Rain = 0
KMUS 300605Z 26007KT 09/M04 A3017 RMK A01 T00881036  RH  041%=      5-min Rain = 0
KMUS 300610Z 26007KT 09/M04 A3017 RMK A01 T00901036  RH  041%=      5-min Rain = 0
KMUS 300615Z 26007KT 09/M04 A3017 RMK A01 T00911039  RH  040%=      5-min Rain = 0
KMUS 300620Z 26007KT 09/M04 A3017 RMK A01 T00901040  RH  040%=      5-min Rain = 0
KMUS 300625Z 26007KT 09/M04 A3017 RMK A01 T00901042  RH  039%=      5-min Rain = 0
KMUS 300630Z 26007KT 09/M04 A3017 RMK A01 T00901043  RH  039%=      5-min Rain = 0
KMUS 300635Z 26007KT 09/M04 A3017 RMK A01 T00911041  RH  039%=      5-min Rain = 0
KMUS 300640Z 26007KT 09/M04 A3017 RMK A01 T00911040  RH  040%=      5-min Rain = 0
KMUS 300645Z 26007KT 09/M04 A3017 RMK A01 T00901040  RH  040%=      5-min Rain = 0
KMUS 300650Z 26006KT 09/M04 A3017 RMK A01 T00871040  RH  041%=      5-min Rain = 0
KMUS 300655Z 26006KT 08/M04 A3017 RMK A01 T00841040  RH  042%=      5-min Rain = 0
KMUS 300700Z 26006KT 08/M04 A3017 RMK A01 T00821039  RH  042%=      5-min Rain = 0
KMUS 300705Z 26007KT 08/M04 A3017 RMK A01 T00811036  RH  044%=      5-min Rain = 0
KMUS 300710Z 26007KT 08/M04 A3017 RMK A01 T00821035  RH  044%=      5-min Rain = 0
KMUS 300715Z 26007KT 08/M04 A3017 RMK A01 T00821035  RH  044%=      5-min Rain = 0
KMUS 300720Z 26008KT 08/M03 A3017 RMK A01 T00821034  RH  044%=      5-min Rain = 0
KMUS 300725Z 26007KT 08/M03 A3017 RMK A01 T00811034  RH  044%=      5-min Rain = 0
KMUS 300730Z 26006KT 08/M03 A3017 RMK A01 T00811034  RH  044%=      5-min Rain = 0
KMUS 300735Z 26007KT 08/M03 A3017 RMK A01 T00791034  RH  045%=      5-min Rain = 0
KMUS 300740Z 26007KT 08/M03 A3016 RMK A01 T00791034  RH  045%=      5-min Rain = 0
KMUS 300745Z 26007KT 08/M03 A3017 RMK A01 T00811033  RH  045%=      5-min Rain = 0
KMUS 300750Z 26007KT 08/M03 A3017 RMK A01 T00791033  RH  045%=      5-min Rain = 0
KMUS 300755Z 26007KT 08/M03 A3017 RMK A01 T00791032  RH  046%=      5-min Rain = 0
KMUS 300800Z 26007KT 08/M03 A3017 RMK A01 T00801031  RH  046%=      5-min Rain = 0
KMUS 300805Z 26007KT 08/M03 A3017 RMK A01 T00801030  RH  046%=      5-min Rain = 0
KMUS 300810Z 26007KT 08/M03 A3017 RMK A01 T00811029  RH  046%=      5-min Rain = 0
KMUS 300815Z 26006KT 08/M03 A3016 RMK A01 T00801030  RH  046%=      5-min Rain = 0
KMUS 300820Z 26007KT 08/M03 A3016 RMK A01 T00761031  RH  047%=      5-min Rain = 0
KMUS 300825Z 26007KT 07/M03 A3016 RMK A01 T00731030  RH  048%=      5-min Rain = 0
KMUS 300830Z 26006KT 07/M03 A3016 RMK A01 T00721028  RH  049%=      5-min Rain = 0
KMUS 300835Z 25006KT 07/M03 A3016 RMK A01 T00711029  RH  050%=      5-min Rain = 0
KMUS 300840Z 24006KT 07/M03 A3016 RMK A01 T00691028  RH  050%=      5-min Rain = 0
KMUS 300845Z 24006KT 07/M03 A3016 RMK A01 T00671028  RH  051%=      5-min Rain = 0
KMUS 300850Z 24007KT 07/M03 A3016 RMK A01 T00651029  RH  051%=      5-min Rain = 0
KMUS 300855Z 24007KT 06/M03 A3016 RMK A01 T00641030  RH  051%=      5-min Rain = 0
KMUS 300900Z 24007KT 06/M03 A3016 RMK A01 T00641030  RH  051%=      5-min Rain = 0
KMUS 300905Z 24006KT 06/M03 A3016 RMK A01 T00641031  RH  051%=      5-min Rain = 0
KMUS 300910Z 25007KT 06/M03 A3015 RMK A01 T00641031  RH  051%=      5-min Rain = 0
KMUS 300915Z 25006KT 07/M03 A3015 RMK A01 T00651030  RH  051%=      5-min Rain = 0
KMUS 300920Z 25006KT 07/M03 A3015 RMK A01 T00651031  RH  051%=      5-min Rain = 0
KMUS 300925Z 25006KT 06/M03 A3015 RMK A01 T00641031  RH  051%=      5-min Rain = 0
KMUS 300930Z 25006KT 06/M03 A3015 RMK A01 T00611031  RH  052%=      5-min Rain = 0
KMUS 300935Z 26006KT 06/M03 A3015 RMK A01 T00591029  RH  053%=      5-min Rain = 0
KMUS 300940Z 25006KT 06/M03 A3015 RMK A01 T00581028  RH  054%=      5-min Rain = 0
KMUS 300945Z 24005KT 06/M03 A3015 RMK A01 T00571028  RH  055%=      5-min Rain = 0
KMUS 300950Z 24005KT 06/M03 A3015 RMK A01 T00571027  RH  055%=      5-min Rain = 0
KMUS 300955Z 24005KT 05/M03 A3015 RMK A01 T00541028  RH  056%=      5-min Rain = 0
KMUS 301000Z 24006KT 05/M03 A3015 RMK A01 T00521028  RH  057%=      5-min Rain = 0
KMUS 301005Z 25006KT 05/M03 A3015 RMK A01 T00521026  RH  057%=      5-min Rain = 0
KMUS 301010Z 25006KT 05/M02 A3014 RMK A01 T00531024  RH  058%=      5-min Rain = 0
KMUS 301015Z 25006KT 06/M02 A3014 RMK A01 T00551023  RH  057%=      5-min Rain = 0
KMUS 301020Z 25006KT 06/M02 A3014 RMK A01 T00561023  RH  057%=      5-min Rain = 0
KMUS 301025Z 24006KT 06/M02 A3014 RMK A01 T00561023  RH  057%=      5-min Rain = 0
KMUS 301030Z 24006KT 06/M02 A3014 RMK A01 T00561022  RH  058%=      5-min Rain = 0
KMUS 301035Z 25006KT 06/M02 A3014 RMK A01 T00571021  RH  058%=      5-min Rain = 0
KMUS 301040Z 25006KT 06/M02 A3014 RMK A01 T00581022  RH  057%=      5-min Rain = 0
KMUS 301045Z 25006KT 06/M02 A3014 RMK A01 T00571022  RH  057%=      5-min Rain = 0
KMUS 301050Z 26006KT 06/M02 A3014 RMK A01 T00571022  RH  057%=      5-min Rain = 0
KMUS 301055Z 25005KT 06/M02 A3014 RMK A01 T00561022  RH  057%=      5-min Rain = 0
KMUS 301100Z 25005KT 05/M02 A3014 RMK A01 T00541024  RH  057%=      5-min Rain = 0
KMUS 301105Z 25005KT 05/M03 A3014 RMK A01 T00521025  RH  058%=      5-min Rain = 0
KMUS 301110Z 25006KT 05/M03 A3014 RMK A01 T00501025  RH  059%=      5-min Rain = 0
KMUS 301115Z 25006KT 05/M03 A3014 RMK A01 T00501025  RH  059%=      5-min Rain = 0
KMUS 301120Z 25006KT 05/M03 A3014 RMK A01 T00501025  RH  059%=      5-min Rain = 0
KMUS 301125Z 25006KT 05/M02 A3014 RMK A01 T00511024  RH  059%=      5-min Rain = 0
KMUS 301130Z 25006KT 05/M03 A3014 RMK A01 T00511025  RH  059%=      5-min Rain = 0
KMUS 301135Z 25006KT 05/M02 A3014 RMK A01 T00501024  RH  059%=      5-min Rain = 0
KMUS 301140Z 25006KT 05/M02 A3014 RMK A01 T00501024  RH  059%=      5-min Rain = 0
KMUS 301145Z 25006KT 05/M02 A3015 RMK A01 T00511024  RH  059%=      5-min Rain = 0
KMUS 301150Z 25006KT 05/M02 A3015 RMK A01 T00521024  RH  059%=      5-min Rain = 0
KMUS 301155Z 25006KT 05/M03 A3015 RMK A01 T00511025  RH  059%=      5-min Rain = 0
KMUS 301200Z 25006KT 05/M03 A3015 RMK A01 T00491026  RH  059%=      5-min Rain = 0
KMUS 301205Z 26005KT 05/M03 A3015 RMK A01 T00471027  RH  059%=      5-min Rain = 0
KMUS 301210Z 26005KT 05/M03 A3015 RMK A01 T00471027  RH  059%=      5-min Rain = 0
KMUS 301215Z 26006KT 05/M03 A3015 RMK A01 T00461027  RH  059%=      5-min Rain = 0
KMUS 301220Z 26006KT 05/M03 A3015 RMK A01 T00451027  RH  060%=      5-min Rain = 0
KMUS 301225Z 26006KT 05/M03 A3015 RMK A01 T00451027  RH  060%=      5-min Rain = 0
KMUS 301230Z 26006KT 05/M03 A3015 RMK A01 T00451026  RH  060%=      5-min Rain = 0
KMUS 301235Z 26006KT 05/M02 A3015 RMK A01 T00471024  RH  060%=      5-min Rain = 0
KMUS 301240Z 26007KT 05/M02 A3015 RMK A01 T00481024  RH  060%=      5-min Rain = 0
KMUS 301245Z 26007KT 05/M02 A3015 RMK A01 T00491023  RH  060%=      5-min Rain = 0
KMUS 301250Z 26008KT 05/M02 A3015 RMK A01 T00521022  RH  059%=      5-min Rain = 0
KMUS 301255Z 27008KT 05/M02 A3015 RMK A01 T00541022  RH  058%=      5-min Rain = 0
KMUS 301300Z 27009KT 06/M02 A3015 RMK A01 T00571022  RH  057%=      5-min Rain = 0
KMUS 301305Z 26008KT 06/M02 A3016 RMK A01 T00611022  RH  056%=      5-min Rain = 0
KMUS 301310Z 26008KT 07/M02 A3016 RMK A01 T00661022  RH  054%=      5-min Rain = 0
KMUS 301315Z 27007KT 07/M02 A3016 RMK A01 T00721022  RH  052%=      5-min Rain = 0
KMUS 301320Z 27007KT 08/M02 A3016 RMK A01 T00781022  RH  050%=      5-min Rain = 0
KMUS 301325Z 27006KT 08/M02 A3016 RMK A01 T00831021  RH  048%=      5-min Rain = 0
KMUS 301330Z 27006KT 09/M02 A3016 RMK A01 T00861020  RH  047%=      5-min Rain = 0
KMUS 301335Z 27006KT 09/M02 A3016 RMK A01 T00891019  RH  047%=      5-min Rain = 0
KMUS 301340Z 27005KT 09/M02 A3016 RMK A01 T00931018  RH  046%=      5-min Rain = 0
KMUS 301345Z 27006KT 10/M02 A3016 RMK A01 T00971018  RH  045%=      5-min Rain = 0
KMUS 301350Z 27007KT 10/M02 A3016 RMK A01 T01011019  RH  043%=      5-min Rain = 0
KMUS 301355Z 27006KT 11/M02 A3016 RMK A01 T01071018  RH  042%=      5-min Rain = 0
KMUS 301400Z 27006KT 11/M02 A3016 RMK A01 T01131018  RH  040%=      5-min Rain = 0
KMUS 301405Z 27008KT 12/M02 A3016 RMK A01 T01161019  RH  039%=      5-min Rain = 0
KMUS 301410Z 28006KT 12/M02 A3016 RMK A01 T01201018  RH  039%=      5-min Rain = 0
KMUS 301415Z 28006KT 13/M02 A3016 RMK A01 T01251017  RH  038%=      5-min Rain = 0
KMUS 301420Z 28007KT 13/M02 A3016 RMK A01 T01291017  RH  036%=      5-min Rain = 0
KMUS 301425Z 28007KT 14/M02 A3016 RMK A01 T01361018  RH  035%=      5-min Rain = 0
KMUS 301430Z 27008KT 15/M02 A3016 RMK A01 T01451020  RH  032%=      5-min Rain = 0
KMUS 301435Z 27008KT 15/M02 A3016 RMK A01 T01511018  RH  031%=      5-min Rain = 0
KMUS 301440Z 27008KT 16/M02 A3016 RMK A01 T01561016  RH  031%=      5-min Rain = 0
KMUS 301445Z 27008KT 16/M02 A3016 RMK A01 T01611015  RH  030%=      5-min Rain = 0
KMUS 301450Z 27009KT 17/M01 A3016 RMK A01 T01671013  RH  030%=      5-min Rain = 0
KMUS 301455Z 27010KT 17/M01 A3016 RMK A01 T01721013  RH  029%=      5-min Rain = 0
KMUS 301500Z 27011KT 18/M01 A3016 RMK A01 T01771013  RH  028%=      5-min Rain = 0
KMUS 301505Z 27011KT 19/M01 A3016 RMK A01 T01861012  RH  026%=      5-min Rain = 0
KMUS 301510Z 28011KT 19/M01 A3016 RMK A01 T01941012  RH  025%=      5-min Rain = 0
KMUS 301515Z 28011KT 20/M01 A3016 RMK A01 T02001011  RH  024%=      5-min Rain = 0
KMUS 301520Z 28010KT 21/M01 A3016 RMK A01 T02051010  RH  024%=      5-min Rain = 0
KMUS 301525Z 28011KT 21/M01 A3016 RMK A01 T02081011  RH  023%=      5-min Rain = 0
KMUS 301530Z 28009KT 21/M01 A3017 RMK A01 T02111009  RH  023%=      5-min Rain = 0
KMUS 301535Z 27009KT 21/M01 A3017 RMK A01 T02131009  RH  023%=      5-min Rain = 0
KMUS 301540Z 27009KT 22/M01 A3016 RMK A01 T02161007  RH  023%=      5-min Rain = 0
KMUS 301545Z 27008KT 22/M01 A3016 RMK A01 T02221007  RH  022%=      5-min Rain = 0
KMUS 301550Z 28008KT 23/M01 A3016 RMK A01 T02281007  RH  021%=      5-min Rain = 0
KMUS 301555Z 28009KT 23/M01 A3016 RMK A01 T02311008  RH  021%=      5-min Rain = 0
KMUS 301600Z 28008KT 24/M01 A3016 RMK A01 T02351007  RH  020%=      5-min Rain = 0
KMUS 301605Z 29008KT 24/M01 A3016 RMK A01 T02371009  RH  020%=      5-min Rain = 0
KMUS 301610Z 27008KT 24/M01 A3016 RMK A01 T02411010  RH  019%=      5-min Rain = 0
KMUS 301615Z 29008KT 24/M01 A3016 RMK A01 T02441011  RH  019%=      5-min Rain = 0
KMUS 301620Z 29009KT 25/M02 A3016 RMK A01 T02471015  RH  018%=      5-min Rain = 0
KMUS 301625Z 29008KT 25/M02 A3016 RMK A01 T02511015  RH  017%=      5-min Rain = 0
KMUS 301630Z 28007KT 25/M02 A3016 RMK A01 T02541016  RH  017%=      5-min Rain = 0
KMUS 301635Z 27007KT 26/M01 A3016 RMK A01 T02571014  RH  017%=      5-min Rain = 0
KMUS 301640Z 28006KT 26/M02 A3016 RMK A01 T02571016  RH  017%=      5-min Rain = 0
KMUS 301645Z 27006KT 26/M02 A3016 RMK A01 T02641016  RH  016%=      5-min Rain = 0
KMUS 301650Z 28005KT 27/M02 A3016 RMK A01 T02651018  RH  016%=      5-min Rain = 0
KMUS 301655Z 26006KT 27/M02 A3017 RMK A01 T02651021  RH  015%=      5-min Rain = 0
KMUS 301700Z 29005KT 27/M02 A3017 RMK A01 T02691020  RH  015%=      5-min Rain = 0
KMUS 301705Z 29005KT 27/M02 A3016 RMK A01 T02711024  RH  014%=      5-min Rain = 0
KMUS 301710Z 29005KT 27/M02 A3016 RMK A01 T02721024  RH  014%=      5-min Rain = 0
KMUS 301715Z 32004KT 28/M02 A3016 RMK A01 T02751023  RH  014%=      5-min Rain = 0
KMUS 301720Z 32004KT 28/M03 A3016 RMK A01 T02781027  RH  014%=      5-min Rain = 0
KMUS 301725Z 26003KT 28/M03 A3016 RMK A01 T02781029  RH  013%=      5-min Rain = 0
KMUS 301730Z 29004KT 28/M03 A3016 RMK A01 T02801030  RH  013%=      5-min Rain = 0
KMUS 301735Z 28003KT 28/M03 A3016 RMK A01 T02831029  RH  013%=      5-min Rain = 0
KMUS 301740Z 25002KT 29/M03 A3016 RMK A01 T02871029  RH  013%=      5-min Rain = 0
KMUS 301745Z 23004KT 29/M03 A3016 RMK A01 T02901030  RH  012%=      5-min Rain = 0
KMUS 301750Z 24004KT 29/M04 A3016 RMK A01 T02901035  RH  012%=      5-min Rain = 0
KMUS 301755Z 00001KT 29/M04 A3016 RMK A01 T02891039  RH  012%=      5-min Rain = 0
KMUS 301800Z 17002KT 29/M04 A3016 RMK A01 T02881041  RH  011%=      5-min Rain = 0
KMUS 301805Z 21003KT 29/M04 A3016 RMK A01 T02921041  RH  011%=      5-min Rain = 0
KMUS 301810Z 18002KT 29/M05 A3016 RMK A01 T02941045  RH  011%=      5-min Rain = 0
KMUS 301815Z 21002KT 30/M05 A3015 RMK A01 T02951046  RH  011%=      5-min Rain = 0
KMUS 301820Z 17004KT 30/M05 A3015 RMK A01 T02971045  RH  011%=      5-min Rain = 0
KMUS 301825Z 21002KT 30/M05 A3015 RMK A01 T03001045  RH  010%=      5-min Rain = 0
KMUS 301830Z 12003KT 30/M04 A3015 RMK A01 T03041044  RH  010%=      5-min Rain = 0
KMUS 301835Z 11003KT 30/M04 A3014 RMK A01 T03031043  RH  010%=      5-min Rain = 0
KMUS 301840Z 24002G7KT 30/M04 A3014 RMK A01 T03031044  RH  010%=      5-min Rain = 0
KMUS 301845Z 18004G10KT 30/M05 A3014 RMK A01 T03031046  RH  010%=      5-min Rain = 0
KMUS 301850Z 19006KT 31/M05 A3014 RMK A01 T03071047  RH  010%=      5-min Rain = 0
KMUS 301855Z 16003KT 31/M05 A3014 RMK A01 T03061048  RH  010%=      5-min Rain = 0
KMUS 301900Z 14003KT 31/M05 A3014 RMK A01 T03071048  RH  010%=      5-min Rain = 0
KMUS 301905Z 34002KT 31/M05 A3013 RMK A01 T03061048  RH  010%=      5-min Rain = 0
KMUS 301910Z 13005G10KT 31/M05 A3013 RMK A01 T03091047  RH  010%=      5-min Rain = 0
KMUS 301915Z 07002KT 31/M05 A3013 RMK A01 T03081048  RH  010%=      5-min Rain = 0
KMUS 301920Z 01002G7KT 31/M05 A3012 RMK A01 T03081046  RH  010%=      5-min Rain = 0
KMUS 301925Z 17005KT 31/M05 A3012 RMK A01 T03131049  RH  009%=      5-min Rain = 0
KMUS 301930Z 17007G13KT 32/M05 A3012 RMK A01 T03161050  RH  009%=      5-min Rain = 0
KMUS 301935Z 15004KT 31/M05 A3012 RMK A01 T03131052  RH  009%=      5-min Rain = 0
KMUS 301940Z 18003G8KT 31/M06 A3012 RMK A01 T03141056  RH  009%=      5-min Rain = 0
KMUS 301945Z 20002KT 32/M06 A3011 RMK A01 T03171055  RH  009%=      5-min Rain = 0
KMUS 301950Z 21001G6KT 32/M06 A3011 RMK A01 T03171055  RH  009%=      5-min Rain = 0
KMUS 301955Z 15005KT 32/M06 A3011 RMK A01 T03161056  RH  009%=      5-min Rain = 0
KMUS 302000Z 13003KT 32/M06 A3011 RMK A01 T03161057  RH  009%=      5-min Rain = 0
KMUS 302005Z 16001KT 32/M05 A301 RMK A01 T03181054  RH  009%=      5-min Rain = 0
KMUS 302010Z 18003G8KT 32/M05 A301 RMK A01 T03191052  RH  009%=      5-min Rain = 0
KMUS 302015Z 11007KT 32/M05 A301 RMK A01 T03201053  RH  009%=      5-min Rain = 0
KMUS 302020Z 14005G10KT 32/M05 A301 RMK A01 T03191053  RH  009%=      5-min Rain = 0
KMUS 302025Z 17006KT 32/M05 A301 RMK A01 T03201053  RH  009%=      5-min Rain = 0
KMUS 302030Z 19004KT 32/M06 A301 RMK A01 T03211055  RH  008%=      5-min Rain = 0
KMUS 302035Z 20004G10KT 32/M06 A301 RMK A01 T03211055  RH  009%=      5-min Rain = 0
KMUS 302040Z 17004KT 32/M06 A301 RMK A01 T03221058  RH  008%=      5-min Rain = 0
KMUS 302045Z 19006KT 32/M06 A301 RMK A01 T03221060  RH  008%=      5-min Rain = 0
KMUS 302050Z 18004KT 32/M06 A301 RMK A01 T03221060  RH  008%=      5-min Rain = 0
KMUS 302055Z 16002KT 32/M06 A301 RMK A01 T03221058  RH  008%=      5-min Rain = 0
KMUS 302100Z 09003KT 32/M06 A3009 RMK A01 T03221055  RH  008%=      5-min Rain = 0
KMUS 302105Z 13003KT 32/M06 A3009 RMK A01 T03241056  RH  008%=      5-min Rain = 0
KMUS 302110Z 12002KT 32/M06 A3009 RMK A01 T03241058  RH  008%=      5-min Rain = 0
KMUS 302115Z 03002KT 32/M06 A3009 RMK A01 T03231058  RH  008%=      5-min Rain = 0
KMUS 302120Z 03004KT 32/M06 A3009 RMK A01 T03231059  RH  008%=      5-min Rain = 0
KMUS 302125Z 33003KT 32/M06 A3009 RMK A01 T03231059  RH  008%=      5-min Rain = 0
KMUS 302130Z 34004KT 32/M06 A3009 RMK A01 T03241060  RH  008%=      5-min Rain = 0
KMUS 302135Z 04003KT 32/M06 A3009 RMK A01 T03211060  RH  008%=      5-min Rain = 0
KMUS 302140Z 06003KT 33/M06 A3009 RMK A01 T03251059  RH  008%=      5-min Rain = 0
KMUS 302145Z 06004KT 33/M06 A3009 RMK A01 T03251059  RH  008%=      5-min Rain = 0
KMUS 302150Z 04003G8KT 32/M06 A3009 RMK A01 T03241058  RH  008%=      5-min Rain = 0
KMUS 302155Z 06007KT 32/M06 A3009 RMK A01 T03231057  RH  008%=      5-min Rain = 0
KMUS 302200Z 06005KT 32/M06 A3009 RMK A01 T03231057  RH  008%=      5-min Rain = 0
KMUS 302205Z 04005KT 32/M06 A3009 RMK A01 T03221056  RH  008%=      5-min Rain = 0
KMUS 302210Z 04004KT 32/M06 A3009 RMK A01 T03221055  RH  008%=      5-min Rain = 0
KMUS 302215Z 05005KT 32/M06 A3009 RMK A01 T03241056  RH  008%=      5-min Rain = 0
KMUS 302220Z 13003KT 32/M06 A3009 RMK A01 T03241056  RH  008%=      5-min Rain = 0
KMUS 302225Z 12004KT 33/M06 A3009 RMK A01 T03251055  RH  008%=      5-min Rain = 0
KMUS 302230Z 08005G10KT 32/M05 A3009 RMK A01 T03231054  RH  008%=      5-min Rain = 0
KMUS 302235Z 07006KT 32/M05 A3009 RMK A01 T03221054  RH  009%=      5-min Rain = 0
KMUS 302240Z 08003KT 32/M05 A3009 RMK A01 T03211054  RH  009%=      5-min Rain = 0
KMUS 302245Z 06004KT 32/M05 A3009 RMK A01 T03211054  RH  009%=      5-min Rain = 0
KMUS 302250Z 03005KT 32/M06 A3009 RMK A01 T03201055  RH  009%=      5-min Rain = 0
KMUS 302255Z 03004KT 32/M06 A3009 RMK A01 T03201055  RH  009%=      5-min Rain = 0
KMUS 302300Z 02005KT 32/M06 A3009 RMK A01 T03221055  RH  008%=      5-min Rain = 0
KMUS 302305Z 34003KT 32/M06 A3009 RMK A01 T03211056  RH  008%=      5-min Rain = 0
KMUS 302310Z 04005KT 32/M06 A3009 RMK A01 T03211055  RH  009%=      5-min Rain = 0
KMUS 302315Z 07006KT 32/M05 A3009 RMK A01 T03191054  RH  009%=      5-min Rain = 0
KMUS 302320Z 05006KT 32/M05 A3009 RMK A01 T03181051  RH  009%=      5-min Rain = 0
KMUS 302325Z 06008KT 32/M05 A3009 RMK A01 T03171048  RH  009%=      5-min Rain = 0
KMUS 302330Z 05009KT 31/M05 A3009 RMK A01 T03141048  RH  009%=      5-min Rain = 0
KMUS 302335Z 06009KT 31/M05 A3009 RMK A01 T03121046  RH  010%=      5-min Rain = 0
KMUS 302340Z 05010KT 31/M05 A301 RMK A01 T03101047  RH  010%=      5-min Rain = 0
KMUS 302345Z 05008KT 31/M05 A301 RMK A01 T03091047  RH  010%=      5-min Rain = 0
KMUS 302350Z 06007KT 31/M05 A301 RMK A01 T03071047  RH  010%=      5-min Rain = 0
KMUS 302355Z 06007KT 31/M05 A301 RMK A01 T03051046  RH  010%=      5-min Rain = 0
KMUS 010000Z 06008KT 30/M04 A301 RMK A01 T03021044  RH  010%=      5-min Rain = 0
KMUS 010005Z 06008KT 30/M04 A301 RMK A01 T02991042  RH  011%=      5-min Rain = 0
KMUS 010010Z 06007KT 30/M04 A301 RMK A01 T02951041  RH  011%=      5-min Rain = 0
KMUS 010015Z 07006KT 29/M04 A3011 RMK A01 T02901040  RH  011%=      5-min Rain = 0
KMUS 010020Z 06007KT 29/M04 A3011 RMK A01 T02851039  RH  012%=      5-min Rain = 0
KMUS 010025Z 06007KT 28/M04 A3011 RMK A01 T02811040  RH  012%=      5-min Rain = 0
KMUS 010030Z 06007KT 28/M04 A3011 RMK A01 T02751039  RH  013%=      5-min Rain = 0
KMUS 010035Z 07007KT 27/M04 A3011 RMK A01 T02691039  RH  013%=      5-min Rain = 0
KMUS 010040Z 07007KT 26/M04 A3011 RMK A01 T02641039  RH  013%=      5-min Rain = 0
KMUS 010045Z 07006KT 26/M04 A3011 RMK A01 T02551039  RH  014%=      5-min Rain = 0
KMUS 010050Z 07007KT 25/M04 A3011 RMK A01 T02461042  RH  015%=      5-min Rain = 0
KMUS 010055Z 08006KT 24/M05 A3012 RMK A01 T02381047  RH  015%=      5-min Rain = 0
KMUS 010100Z 08007KT 23/M05 A3012 RMK A01 T02301048  RH  015%=      5-min Rain = 0
KMUS 010105Z 08007KT 23/M05 A3012 RMK A01 T02261047  RH  016%=      5-min Rain = 0
KMUS 010110Z 08007KT 22/M04 A3012 RMK A01 T02201044  RH  017%=      5-min Rain = 0
KMUS 010115Z 09007KT 22/M04 A3012 RMK A01 T02171042  RH  017%=      5-min Rain = 0
KMUS 010120Z 09007KT 21/M04 A3012 RMK A01 T02141041  RH  018%=      5-min Rain = 0
KMUS 010125Z 09006KT 21/M04 A3013 RMK A01 T02101039  RH  019%=      5-min Rain = 0
KMUS 010130Z 09007KT 21/M04 A3013 RMK A01 T02051035  RH  020%=      5-min Rain = 0
KMUS 010135Z 08006KT 20/M03 A3013 RMK A01 T01991031  RH  021%=      5-min Rain = 0
KMUS 010140Z 09006KT 20/M03 A3013 RMK A01 T01951030  RH  022%=      5-min Rain = 0
KMUS 010145Z 10006KT 19/M03 A3013 RMK A01 T01931031  RH  022%=      5-min Rain = 0
KMUS 010150Z 10006KT 19/M03 A3014 RMK A01 T01901029  RH  023%=      5-min Rain = 0
KMUS 010155Z 11006KT 19/M03 A3014 RMK A01 T01851026  RH  024%=      5-min Rain = 0
KMUS 010200Z 11006KT 18/M02 A3014 RMK A01 T01831021  RH  025%=      5-min Rain = 0
KMUS 010205Z 11006KT 18/M02 A3014 RMK A01 T01791023  RH  025%=      5-min Rain = 0
KMUS 010210Z 11007KT 18/M03 A3014 RMK A01 T01781027  RH  025%=      5-min Rain = 0
KMUS 010215Z 11006KT 18/M03 A3014 RMK A01 T01781031  RH  024%=      5-min Rain = 0
KMUS 010220Z 12007KT 18/M03 A3015 RMK A01 T01791032  RH  024%=      5-min Rain = 0
KMUS 010225Z 12007KT 19/M03 A3015 RMK A01 T01861034  RH  022%=      5-min Rain = 0
KMUS 010230Z 13008KT 20/M03 A3015 RMK A01 T01961033  RH  021%=      5-min Rain = 0
KMUS 010235Z 13009KT 22/M03 A3015 RMK A01 T02151033  RH  019%=      5-min Rain = 0
KMUS 010240Z 14009KT 22/M03 A3015 RMK A01 T02181033  RH  019%=      5-min Rain = 0
KMUS 010245Z 14008KT 21/M03 A3015 RMK A01 T02141030  RH  019%=      5-min Rain = 0
KMUS 010250Z 14008KT 21/M03 A3015 RMK A01 T02051028  RH  021%=      5-min Rain = 0
KMUS 010255Z 15008KT 20/M03 A3016 RMK A01 T01991028  RH  022%=      5-min Rain = 0
KMUS 010300Z 15010KT 20/M03 A3016 RMK A01 T02001028  RH  021%=      5-min Rain = 0
KMUS 010305Z 15009KT 21/M03 A3016 RMK A01 T02051029  RH  021%=      5-min Rain = 0
KMUS 010310Z 14010KT 21/M03 A3016 RMK A01 T02071030  RH  020%=      5-min Rain = 0
KMUS 010315Z 15009KT 21/M03 A3016 RMK A01 T02081030  RH  020%=      5-min Rain = 0
KMUS 010320Z 14008KT 21/M03 A3017 RMK A01 T02081031  RH  020%=      5-min Rain = 0
KMUS 010325Z 15007KT 20/M03 A3017 RMK A01 T02041030  RH  021%=      5-min Rain = 0
KMUS 010330Z 15007KT 20/M03 A3017 RMK A01 T01961027  RH  022%=      5-min Rain = 0
KMUS 010335Z 15007KT 19/M02 A3017 RMK A01 T01891024  RH  024%=      5-min Rain = 0
KMUS 010340Z 15008KT 19/M03 A3017 RMK A01 T01901025  RH  023%=      5-min Rain = 0
KMUS 010345Z 15007KT 19/M03 A3017 RMK A01 T01931025  RH  023%=      5-min Rain = 0
KMUS 010350Z 15006KT 19/M03 A3018 RMK A01 T01941025  RH  023%=      5-min Rain = 0
KMUS 010355Z 13005KT 19/M03 A3018 RMK A01 T01941025  RH  023%=      5-min Rain = 0
KMUS 010400Z 07004KT 19/M03 A3018 RMK A01 T01851028  RH  023%=      5-min Rain = 0
KMUS 010405Z 08005KT 17/M03 A3018 RMK A01 T01731027  RH  026%=      5-min Rain = 0
KMUS 010410Z 11006KT 18/M03 A3018 RMK A01 T01751028  RH  025%=      5-min Rain = 0
KMUS 010415Z 12006KT 19/M03 A3018 RMK A01 T01871028  RH  023%=      5-min Rain = 0
KMUS 010420Z 13005KT 19/M03 A3019 RMK A01 T01921029  RH  022%=      5-min Rain = 0
KMUS 010425Z 13004KT 19/M03 A3019 RMK A01 T01881029  RH  023%=      5-min Rain = 0
KMUS 010430Z 07004KT 18/M03 A3019 RMK A01 T01841028  RH  024%=      5-min Rain = 0
KMUS 010435Z 05004KT 18/M03 A3019 RMK A01 T01751025  RH  026%=      5-min Rain = 0
KMUS 010440Z 07004KT 17/M03 A3019 RMK A01 T01711025  RH  026%=      5-min Rain = 0
KMUS 010445Z 03006KT 17/M03 A302 RMK A01 T01731025  RH  026%=      5-min Rain = 0
KMUS 010450Z 02008KT 17/M02 A302 RMK A01 T01711019  RH  027%=      5-min Rain = 0
KMUS 010455Z 04004KT 17/M02 A302 RMK A01 T01731021  RH  027%=      5-min Rain = 0

Page generated in 0.0271 seconds.